sensor_id;sensor_type;location;lat;lon;timestamp;pressure;altitude;pressure_sealevel;temperature;humidity
81913;BME280;71377;50.698;7.164;2023-07-22T00:01:44;100917.16;;;13.76;77.23
81913;BME280;71377;50.698;7.164;2023-07-22T00:04:10;100918.22;;;13.72;77.27
81913;BME280;71377;50.698;7.164;2023-07-22T00:06:37;100913.25;;;13.84;77.25
81913;BME280;71377;50.698;7.164;2023-07-22T00:09:03;100909.66;;;13.67;77.51
81913;BME280;71377;50.698;7.164;2023-07-22T00:11:30;100902.09;;;13.78;77.50
81913;BME280;71377;50.698;7.164;2023-07-22T00:13:56;100904.44;;;13.65;77.39
81913;BME280;71377;50.698;7.164;2023-07-22T00:16:23;100908.66;;;13.69;77.46
81913;BME280;71377;50.698;7.164;2023-07-22T00:18:50;100912.88;;;13.73;77.36
81913;BME280;71377;50.698;7.164;2023-07-22T00:21:16;100905.50;;;13.61;77.22
81913;BME280;71377;50.698;7.164;2023-07-22T00:23:43;100906.34;;;13.62;77.52
81913;BME280;71377;50.698;7.164;2023-07-22T00:26:09;100909.59;;;13.48;76.86
81913;BME280;71377;50.698;7.164;2023-07-22T00:28:36;100910.53;;;13.47;76.93
81913;BME280;71377;50.698;7.164;2023-07-22T00:31:03;100914.13;;;13.44;76.87
81913;BME280;71377;50.698;7.164;2023-07-22T00:33:30;100910.72;;;13.42;76.97
81913;BME280;71377;50.698;7.164;2023-07-22T00:35:56;100912.25;;;13.48;77.42
81913;BME280;71377;50.698;7.164;2023-07-22T00:38:23;100917.03;;;13.58;77.13
81913;BME280;71377;50.698;7.164;2023-07-22T00:40:49;100915.25;;;13.59;77.05
81913;BME280;71377;50.698;7.164;2023-07-22T00:43:16;100914.03;;;13.47;77.19
81913;BME280;71377;50.698;7.164;2023-07-22T00:45:42;100913.16;;;13.47;77.11
81913;BME280;71377;50.698;7.164;2023-07-22T00:48:09;100907.06;;;13.45;77.29
81913;BME280;71377;50.698;7.164;2023-07-22T00:50:36;100921.41;;;13.39;77.35
81913;BME280;71377;50.698;7.164;2023-07-22T00:53:02;100921.59;;;13.35;77.41
81913;BME280;71377;50.698;7.164;2023-07-22T00:55:29;100918.22;;;13.31;76.86
81913;BME280;71377;50.698;7.164;2023-07-22T00:57:58;100919.22;;;13.49;76.52
81913;BME280;71377;50.698;7.164;2023-07-22T01:00:24;100918.69;;;13.41;76.52
81913;BME280;71377;50.698;7.164;2023-07-22T01:02:51;100922.50;;;13.34;76.61
81913;BME280;71377;50.698;7.164;2023-07-22T01:05:18;100917.56;;;13.26;76.43
81913;BME280;71377;50.698;7.164;2023-07-22T01:07:45;100925.00;;;13.37;76.30
81913;BME280;71377;50.698;7.164;2023-07-22T01:10:13;100927.19;;;13.27;76.27
81913;BME280;71377;50.698;7.164;2023-07-22T01:12:39;100925.69;;;13.21;76.04
81913;BME280;71377;50.698;7.164;2023-07-22T01:15:06;100927.25;;;13.25;76.62
81913;BME280;71377;50.698;7.164;2023-07-22T01:17:36;100928.53;;;13.15;76.32
81913;BME280;71377;50.698;7.164;2023-07-22T01:20:04;100917.38;;;13.09;76.17
81913;BME280;71377;50.698;7.164;2023-07-22T01:22:32;100927.31;;;13.02;76.01
81913;BME280;71377;50.698;7.164;2023-07-22T01:24:59;100915.59;;;13.09;75.96
81913;BME280;71377;50.698;7.164;2023-07-22T01:27:26;100920.31;;;13.01;76.24
81913;BME280;71377;50.698;7.164;2023-07-22T01:29:53;100911.38;;;13.05;76.15
81913;BME280;71377;50.698;7.164;2023-07-22T01:32:20;100913.31;;;13.00;76.12
81913;BME280;71377;50.698;7.164;2023-07-22T01:34:46;100908.19;;;12.97;76.40
81913;BME280;71377;50.698;7.164;2023-07-22T01:37:13;100912.22;;;13.06;76.41
81913;BME280;71377;50.698;7.164;2023-07-22T01:39:39;100909.97;;;12.96;76.19
81913;BME280;71377;50.698;7.164;2023-07-22T01:42:05;100921.72;;;13.10;76.42
81913;BME280;71377;50.698;7.164;2023-07-22T01:44:32;100915.91;;;13.01;76.09
81913;BME280;71377;50.698;7.164;2023-07-22T01:47:02;100909.78;;;13.01;76.16
81913;BME280;71377;50.698;7.164;2023-07-22T01:49:29;100902.84;;;12.98;76.55
81913;BME280;71377;50.698;7.164;2023-07-22T01:51:55;100899.53;;;12.93;76.26
81913;BME280;71377;50.698;7.164;2023-07-22T01:54:22;100904.81;;;12.93;76.31
81913;BME280;71377;50.698;7.164;2023-07-22T01:56:48;100902.50;;;12.86;76.36
81913;BME280;71377;50.698;7.164;2023-07-22T01:59:15;100899.88;;;12.86;76.38
81913;BME280;71377;50.698;7.164;2023-07-22T02:01:41;100895.63;;;12.82;76.16
81913;BME280;71377;50.698;7.164;2023-07-22T02:04:08;100893.84;;;12.82;76.47
81913;BME280;71377;50.698;7.164;2023-07-22T02:06:34;100895.06;;;12.73;76.59
81913;BME280;71377;50.698;7.164;2023-07-22T02:09:01;100899.50;;;12.73;76.42
81913;BME280;71377;50.698;7.164;2023-07-22T02:11:37;100902.19;;;12.71;76.58
81913;BME280;71377;50.698;7.164;2023-07-22T02:14:03;100901.63;;;12.63;76.43
81913;BME280;71377;50.698;7.164;2023-07-22T02:16:34;100900.00;;;12.61;76.27
81913;BME280;71377;50.698;7.164;2023-07-22T02:19:02;100901.78;;;12.60;76.38
81913;BME280;71377;50.698;7.164;2023-07-22T02:21:29;100898.38;;;12.57;76.23
81913;BME280;71377;50.698;7.164;2023-07-22T02:23:55;100897.16;;;12.65;76.22
81913;BME280;71377;50.698;7.164;2023-07-22T02:26:22;100898.94;;;12.65;76.13
81913;BME280;71377;50.698;7.164;2023-07-22T02:28:48;100892.00;;;12.62;76.21
81913;BME280;71377;50.698;7.164;2023-07-22T02:31:15;100889.88;;;12.72;76.47
81913;BME280;71377;50.698;7.164;2023-07-22T02:33:41;100899.00;;;12.63;76.59
81913;BME280;71377;50.698;7.164;2023-07-22T02:36:08;100887.31;;;12.70;76.26
81913;BME280;71377;50.698;7.164;2023-07-22T02:38:34;100886.75;;;12.62;76.29
81913;BME280;71377;50.698;7.164;2023-07-22T02:41:04;100890.31;;;12.61;76.46
81913;BME280;71377;50.698;7.164;2023-07-22T02:43:36;100895.69;;;12.58;76.31
81913;BME280;71377;50.698;7.164;2023-07-22T02:46:04;100893.88;;;12.60;76.43
81913;BME280;71377;50.698;7.164;2023-07-22T02:48:31;100891.63;;;12.50;76.49
81913;BME280;71377;50.698;7.164;2023-07-22T02:51:08;100891.94;;;12.42;76.44
81913;BME280;71377;50.698;7.164;2023-07-22T02:53:35;100895.53;;;12.39;76.32
81913;BME280;71377;50.698;7.164;2023-07-22T02:56:05;100898.25;;;12.38;76.44
81913;BME280;71377;50.698;7.164;2023-07-22T02:58:34;100892.84;;;12.41;76.46
81913;BME280;71377;50.698;7.164;2023-07-22T03:01:05;100899.88;;;12.40;76.66
81913;BME280;71377;50.698;7.164;2023-07-22T03:03:35;100898.00;;;12.44;76.55
81913;BME280;71377;50.698;7.164;2023-07-22T03:06:03;100894.63;;;12.40;76.71
81913;BME280;71377;50.698;7.164;2023-07-22T03:08:30;100899.72;;;12.45;76.53
81913;BME280;71377;50.698;7.164;2023-07-22T03:10:57;100894.47;;;12.45;76.80
81913;BME280;71377;50.698;7.164;2023-07-22T03:13:23;100895.44;;;12.42;76.65
81913;BME280;71377;50.698;7.164;2023-07-22T03:15:49;100905.91;;;12.44;76.43
81913;BME280;71377;50.698;7.164;2023-07-22T03:18:16;100908.78;;;12.38;76.31
81913;BME280;71377;50.698;7.164;2023-07-22T03:20:42;100898.47;;;12.32;76.19
81913;BME280;71377;50.698;7.164;2023-07-22T03:23:09;100892.19;;;12.36;76.65
81913;BME280;71377;50.698;7.164;2023-07-22T03:25:35;100897.50;;;12.34;76.50
81913;BME280;71377;50.698;7.164;2023-07-22T03:28:05;100899.03;;;12.40;76.43
81913;BME280;71377;50.698;7.164;2023-07-22T03:30:32;100902.81;;;12.33;76.58
81913;BME280;71377;50.698;7.164;2023-07-22T03:32:59;100894.13;;;12.31;76.51
81913;BME280;71377;50.698;7.164;2023-07-22T03:35:27;100895.91;;;12.30;76.12
81913;BME280;71377;50.698;7.164;2023-07-22T03:37:54;100896.88;;;12.28;76.50
81913;BME280;71377;50.698;7.164;2023-07-22T03:40:21;100897.50;;;12.34;76.26
81913;BME280;71377;50.698;7.164;2023-07-22T03:42:50;100895.03;;;12.30;76.64
81913;BME280;71377;50.698;7.164;2023-07-22T03:45:17;100901.66;;;12.40;76.82
81913;BME280;71377;50.698;7.164;2023-07-22T03:47:45;100901.09;;;12.32;76.49
81913;BME280;71377;50.698;7.164;2023-07-22T03:50:12;100898.88;;;12.44;76.78
81913;BME280;71377;50.698;7.164;2023-07-22T03:52:39;100893.19;;;12.32;76.70
81913;BME280;71377;50.698;7.164;2023-07-22T03:55:06;100900.44;;;12.27;76.67
81913;BME280;71377;50.698;7.164;2023-07-22T03:57:32;100892.47;;;12.28;76.67
81913;BME280;71377;50.698;7.164;2023-07-22T04:00:00;100893.25;;;12.30;76.44
81913;BME280;71377;50.698;7.164;2023-07-22T04:02:26;100894.69;;;12.39;76.83
81913;BME280;71377;50.698;7.164;2023-07-22T04:04:54;100891.81;;;12.45;76.97
81913;BME280;71377;50.698;7.164;2023-07-22T04:07:21;100889.28;;;12.42;77.00
81913;BME280;71377;50.698;7.164;2023-07-22T04:09:48;100890.50;;;12.33;77.09
81913;BME280;71377;50.698;7.164;2023-07-22T04:12:14;100893.19;;;12.32;76.96
81913;BME280;71377;50.698;7.164;2023-07-22T04:14:41;100894.19;;;12.29;76.87
81913;BME280;71377;50.698;7.164;2023-07-22T04:17:07;100892.97;;;12.38;76.92
81913;BME280;71377;50.698;7.164;2023-07-22T04:19:35;100893.03;;;12.36;77.04
81913;BME280;71377;50.698;7.164;2023-07-22T04:22:02;100891.44;;;12.32;76.92
81913;BME280;71377;50.698;7.164;2023-07-22T04:24:31;100890.75;;;12.27;76.98
81913;BME280;71377;50.698;7.164;2023-07-22T04:26:58;100886.97;;;12.34;76.77
81913;BME280;71377;50.698;7.164;2023-07-22T04:29:24;100888.13;;;12.27;76.90
81913;BME280;71377;50.698;7.164;2023-07-22T04:31:51;100894.91;;;12.33;77.02
81913;BME280;71377;50.698;7.164;2023-07-22T04:34:17;100893.69;;;12.41;77.15
81913;BME280;71377;50.698;7.164;2023-07-22T04:36:43;100888.13;;;12.49;76.89
81913;BME280;71377;50.698;7.164;2023-07-22T04:39:10;100895.25;;;12.47;76.85
81913;BME280;71377;50.698;7.164;2023-07-22T04:41:36;100902.13;;;12.51;76.93
81913;BME280;71377;50.698;7.164;2023-07-22T04:44:03;100901.88;;;12.57;77.14
81913;BME280;71377;50.698;7.164;2023-07-22T04:46:30;100910.22;;;12.68;77.24
81913;BME280;71377;50.698;7.164;2023-07-22T04:48:56;100905.97;;;12.64;77.09
81913;BME280;71377;50.698;7.164;2023-07-22T04:51:24;100908.09;;;12.78;77.64
81913;BME280;71377;50.698;7.164;2023-07-22T04:53:50;100909.41;;;12.66;77.35
81913;BME280;71377;50.698;7.164;2023-07-22T04:56:18;100907.53;;;12.70;76.91
81913;BME280;71377;50.698;7.164;2023-07-22T04:58:45;100907.41;;;12.73;77.28
81913;BME280;71377;50.698;7.164;2023-07-22T05:01:11;100902.13;;;12.95;77.38
81913;BME280;71377;50.698;7.164;2023-07-22T05:03:38;100905.88;;;12.89;77.19
81913;BME280;71377;50.698;7.164;2023-07-22T05:06:05;100915.19;;;12.98;76.99
81913;BME280;71377;50.698;7.164;2023-07-22T05:08:31;100904.09;;;12.90;77.24
81913;BME280;71377;50.698;7.164;2023-07-22T05:10:58;100908.81;;;12.82;77.13
81913;BME280;71377;50.698;7.164;2023-07-22T05:13:24;100905.16;;;12.86;77.24
81913;BME280;71377;50.698;7.164;2023-07-22T05:15:50;100912.78;;;12.92;77.41
81913;BME280;71377;50.698;7.164;2023-07-22T05:18:17;100906.00;;;12.86;77.32
81913;BME280;71377;50.698;7.164;2023-07-22T05:20:43;100912.84;;;12.90;77.16
81913;BME280;71377;50.698;7.164;2023-07-22T05:23:11;100913.25;;;13.01;77.10
81913;BME280;71377;50.698;7.164;2023-07-22T05:25:38;100908.91;;;13.00;76.69
81913;BME280;71377;50.698;7.164;2023-07-22T05:28:04;100912.34;;;13.02;76.57
81913;BME280;71377;50.698;7.164;2023-07-22T05:30:30;100898.97;;;13.07;76.60
81913;BME280;71377;50.698;7.164;2023-07-22T05:33:01;100904.38;;;13.04;76.48
81913;BME280;71377;50.698;7.164;2023-07-22T05:35:28;100904.66;;;13.18;76.88
81913;BME280;71377;50.698;7.164;2023-07-22T05:37:55;100902.16;;;13.15;76.60
81913;BME280;71377;50.698;7.164;2023-07-22T05:40:21;100899.38;;;13.18;76.68
81913;BME280;71377;50.698;7.164;2023-07-22T05:42:48;100901.25;;;13.37;76.74
81913;BME280;71377;50.698;7.164;2023-07-22T05:45:14;100898.59;;;13.38;76.42
81913;BME280;71377;50.698;7.164;2023-07-22T05:47:42;100899.03;;;13.48;76.31
81913;BME280;71377;50.698;7.164;2023-07-22T05:50:09;100902.06;;;13.59;76.41
81913;BME280;71377;50.698;7.164;2023-07-22T05:52:36;100902.19;;;13.76;76.67
81913;BME280;71377;50.698;7.164;2023-07-22T05:55:03;100904.22;;;13.90;76.60
81913;BME280;71377;50.698;7.164;2023-07-22T05:57:30;100903.84;;;13.98;76.83
81913;BME280;71377;50.698;7.164;2023-07-22T05:59:57;100900.22;;;14.00;76.70
81913;BME280;71377;50.698;7.164;2023-07-22T06:02:34;100894.44;;;14.11;76.70
81913;BME280;71377;50.698;7.164;2023-07-22T06:05:00;100895.53;;;14.26;76.47
81913;BME280;71377;50.698;7.164;2023-07-22T06:07:27;100899.22;;;14.40;76.40
81913;BME280;71377;50.698;7.164;2023-07-22T06:09:54;100901.47;;;14.50;76.88
81913;BME280;71377;50.698;7.164;2023-07-22T06:12:20;100897.16;;;14.66;76.61
81913;BME280;71377;50.698;7.164;2023-07-22T06:14:47;100907.00;;;14.81;76.99
81913;BME280;71377;50.698;7.164;2023-07-22T06:17:13;100901.50;;;14.86;76.91
81913;BME280;71377;50.698;7.164;2023-07-22T06:19:39;100899.97;;;14.99;76.81
81913;BME280;71377;50.698;7.164;2023-07-22T06:22:07;100896.53;;;14.97;77.28
81913;BME280;71377;50.698;7.164;2023-07-22T06:24:33;100893.03;;;14.96;77.11
81913;BME280;71377;50.698;7.164;2023-07-22T06:27:00;100899.97;;;14.99;77.08
81913;BME280;71377;50.698;7.164;2023-07-22T06:29:26;100906.13;;;15.17;77.14
81913;BME280;71377;50.698;7.164;2023-07-22T06:31:53;100895.38;;;15.37;76.75
81913;BME280;71377;50.698;7.164;2023-07-22T06:34:19;100897.31;;;15.34;77.03
81913;BME280;71377;50.698;7.164;2023-07-22T06:36:46;100899.13;;;15.50;77.08
81913;BME280;71377;50.698;7.164;2023-07-22T06:39:13;100891.00;;;15.71;76.63
81913;BME280;71377;50.698;7.164;2023-07-22T06:41:39;100892.84;;;15.86;76.59
81913;BME280;71377;50.698;7.164;2023-07-22T06:44:06;100894.00;;;16.14;76.45
81913;BME280;71377;50.698;7.164;2023-07-22T06:46:32;100898.66;;;16.26;76.36
81913;BME280;71377;50.698;7.164;2023-07-22T06:49:00;100897.13;;;16.37;75.83
81913;BME280;71377;50.698;7.164;2023-07-22T06:51:26;100893.78;;;16.18;76.34
81913;BME280;71377;50.698;7.164;2023-07-22T06:53:53;100888.72;;;16.14;77.02
81913;BME280;71377;50.698;7.164;2023-07-22T06:56:19;100897.50;;;16.14;76.83
81913;BME280;71377;50.698;7.164;2023-07-22T06:58:46;100893.28;;;16.43;76.21
81913;BME280;71377;50.698;7.164;2023-07-22T07:01:13;100895.66;;;16.48;76.08
81913;BME280;71377;50.698;7.164;2023-07-22T07:03:40;100893.94;;;16.47;76.25
81913;BME280;71377;50.698;7.164;2023-07-22T07:06:06;100894.13;;;16.59;76.08
81913;BME280;71377;50.698;7.164;2023-07-22T07:08:32;100892.16;;;16.63;75.40
81913;BME280;71377;50.698;7.164;2023-07-22T07:10:59;100897.91;;;16.71;75.73
81913;BME280;71377;50.698;7.164;2023-07-22T07:13:27;100891.75;;;16.86;74.66
81913;BME280;71377;50.698;7.164;2023-07-22T07:15:54;100894.72;;;16.96;74.57
81913;BME280;71377;50.698;7.164;2023-07-22T07:18:21;100897.94;;;17.01;74.79
81913;BME280;71377;50.698;7.164;2023-07-22T07:20:47;100888.34;;;17.14;74.36
81913;BME280;71377;50.698;7.164;2023-07-22T07:23:14;100879.50;;;17.14;73.55
81913;BME280;71377;50.698;7.164;2023-07-22T07:25:42;100890.50;;;17.38;73.23
81913;BME280;71377;50.698;7.164;2023-07-22T07:28:09;100896.25;;;17.44;72.86
81913;BME280;71377;50.698;7.164;2023-07-22T07:30:36;100881.03;;;17.62;72.33
81913;BME280;71377;50.698;7.164;2023-07-22T07:33:03;100886.44;;;17.61;72.70
81913;BME280;71377;50.698;7.164;2023-07-22T07:35:30;100881.13;;;17.61;71.80
81913;BME280;71377;50.698;7.164;2023-07-22T07:37:56;100886.19;;;17.94;70.95
81913;BME280;71377;50.698;7.164;2023-07-22T07:40:23;100888.66;;;18.11;71.20
81913;BME280;71377;50.698;7.164;2023-07-22T07:42:49;100879.09;;;18.08;71.08
81913;BME280;71377;50.698;7.164;2023-07-22T07:45:16;100882.38;;;18.26;70.90
81913;BME280;71377;50.698;7.164;2023-07-22T07:47:42;100887.38;;;18.45;70.30
81913;BME280;71377;50.698;7.164;2023-07-22T07:50:09;100884.59;;;18.61;69.21
81913;BME280;71377;50.698;7.164;2023-07-22T07:52:35;100886.25;;;18.76;68.51
81913;BME280;71377;50.698;7.164;2023-07-22T07:55:02;100874.25;;;18.83;68.20
81913;BME280;71377;50.698;7.164;2023-07-22T07:57:29;100881.72;;;18.78;68.86
81913;BME280;71377;50.698;7.164;2023-07-22T07:59:55;100877.59;;;18.87;68.01
81913;BME280;71377;50.698;7.164;2023-07-22T08:02:22;100876.28;;;18.80;68.31
81913;BME280;71377;50.698;7.164;2023-07-22T08:04:48;100879.41;;;18.86;68.33
81913;BME280;71377;50.698;7.164;2023-07-22T08:07:16;100872.97;;;19.16;67.03
81913;BME280;71377;50.698;7.164;2023-07-22T08:09:43;100873.00;;;19.41;65.79
81913;BME280;71377;50.698;7.164;2023-07-22T08:12:09;100871.63;;;19.48;65.80
81913;BME280;71377;50.698;7.164;2023-07-22T08:14:36;100870.91;;;19.72;63.76
81913;BME280;71377;50.698;7.164;2023-07-22T08:17:02;100863.56;;;19.75;62.56
81913;BME280;71377;50.698;7.164;2023-07-22T08:19:29;100867.50;;;19.70;62.59
81913;BME280;71377;50.698;7.164;2023-07-22T08:21:57;100857.38;;;19.75;61.87
81913;BME280;71377;50.698;7.164;2023-07-22T08:24:23;100860.25;;;19.72;62.75
81913;BME280;71377;50.698;7.164;2023-07-22T08:26:50;100858.13;;;19.77;60.75
81913;BME280;71377;50.698;7.164;2023-07-22T08:29:16;100853.72;;;19.89;60.89
81913;BME280;71377;50.698;7.164;2023-07-22T08:31:43;100857.00;;;20.18;60.20
81913;BME280;71377;50.698;7.164;2023-07-22T08:34:09;100857.34;;;20.37;58.92
81913;BME280;71377;50.698;7.164;2023-07-22T08:36:36;100855.75;;;20.47;56.88
81913;BME280;71377;50.698;7.164;2023-07-22T08:39:02;100856.00;;;20.68;57.03
81913;BME280;71377;50.698;7.164;2023-07-22T08:41:30;100858.56;;;20.70;55.72
81913;BME280;71377;50.698;7.164;2023-07-22T08:43:58;100845.34;;;21.03;55.38
81913;BME280;71377;50.698;7.164;2023-07-22T08:46:28;100857.38;;;21.44;54.80
81913;BME280;71377;50.698;7.164;2023-07-22T08:48:56;100850.84;;;21.59;53.20
81913;BME280;71377;50.698;7.164;2023-07-22T08:51:25;100848.91;;;21.95;52.32
81913;BME280;71377;50.698;7.164;2023-07-22T08:53:55;100848.81;;;22.08;51.78
81913;BME280;71377;50.698;7.164;2023-07-22T08:56:37;100843.19;;;22.33;50.80
81913;BME280;71377;50.698;7.164;2023-07-22T08:59:05;100840.84;;;22.40;49.64
81913;BME280;71377;50.698;7.164;2023-07-22T09:01:33;100837.66;;;22.46;49.25
81913;BME280;71377;50.698;7.164;2023-07-22T09:04:01;100839.63;;;22.33;48.98
81913;BME280;71377;50.698;7.164;2023-07-22T09:06:28;100836.09;;;22.32;49.51
81913;BME280;71377;50.698;7.164;2023-07-22T09:08:55;100834.84;;;22.47;47.46
81913;BME280;71377;50.698;7.164;2023-07-22T09:11:23;100834.66;;;22.28;48.98
81913;BME280;71377;50.698;7.164;2023-07-22T09:13:51;100835.06;;;22.12;48.27
81913;BME280;71377;50.698;7.164;2023-07-22T09:16:18;100829.25;;;22.07;47.68
81913;BME280;71377;50.698;7.164;2023-07-22T09:18:45;100830.94;;;22.08;47.06
81913;BME280;71377;50.698;7.164;2023-07-22T09:21:11;100834.53;;;22.29;48.87
81913;BME280;71377;50.698;7.164;2023-07-22T09:23:38;100831.72;;;22.31;49.52
81913;BME280;71377;50.698;7.164;2023-07-22T09:26:12;100826.59;;;22.50;47.85
81913;BME280;71377;50.698;7.164;2023-07-22T09:31:15;100823.44;;;22.45;44.70
81913;BME280;71377;50.698;7.164;2023-07-22T09:33:42;100819.19;;;22.32;43.87
81913;BME280;71377;50.698;7.164;2023-07-22T09:36:10;100820.06;;;22.21;43.60
81913;BME280;71377;50.698;7.164;2023-07-22T09:38:37;100819.72;;;22.57;41.62
81913;BME280;71377;50.698;7.164;2023-07-22T09:41:04;100813.44;;;22.79;40.70
81913;BME280;71377;50.698;7.164;2023-07-22T09:43:31;100822.56;;;22.88;41.27
81913;BME280;71377;50.698;7.164;2023-07-22T09:46:11;100809.06;;;22.78;41.50
81913;BME280;71377;50.698;7.164;2023-07-22T09:48:42;100814.94;;;23.25;37.28
81913;BME280;71377;50.698;7.164;2023-07-22T09:51:12;100811.56;;;23.02;39.36
81913;BME280;71377;50.698;7.164;2023-07-22T09:53:44;100823.47;;;22.34;39.94
81913;BME280;71377;50.698;7.164;2023-07-22T09:56:11;100807.50;;;22.44;41.35
81913;BME280;71377;50.698;7.164;2023-07-22T09:58:38;100820.03;;;22.75;40.45
81913;BME280;71377;50.698;7.164;2023-07-22T10:01:05;100812.13;;;22.85;39.26
81913;BME280;71377;50.698;7.164;2023-07-22T10:03:32;100813.81;;;22.75;39.67
81913;BME280;71377;50.698;7.164;2023-07-22T10:06:00;100808.91;;;22.59;37.80
81913;BME280;71377;50.698;7.164;2023-07-22T10:08:34;100802.72;;;22.79;38.85
81913;BME280;71377;50.698;7.164;2023-07-22T10:11:05;100802.25;;;22.74;39.25
81913;BME280;71377;50.698;7.164;2023-07-22T10:13:33;100806.41;;;22.78;39.06
81913;BME280;71377;50.698;7.164;2023-07-22T10:16:00;100808.72;;;23.25;40.05
81913;BME280;71377;50.698;7.164;2023-07-22T10:18:27;100803.34;;;23.46;41.10
81913;BME280;71377;50.698;7.164;2023-07-22T10:20:55;100807.44;;;23.71;37.93
81913;BME280;71377;50.698;7.164;2023-07-22T10:23:25;100803.47;;;23.65;39.60
81913;BME280;71377;50.698;7.164;2023-07-22T10:25:53;100798.31;;;23.83;38.50
81913;BME280;71377;50.698;7.164;2023-07-22T10:28:21;100791.66;;;24.27;39.16
81913;BME280;71377;50.698;7.164;2023-07-22T10:30:48;100786.44;;;23.85;38.74
81913;BME280;71377;50.698;7.164;2023-07-22T10:33:16;100790.22;;;23.73;34.77
81913;BME280;71377;50.698;7.164;2023-07-22T10:35:46;100780.44;;;24.03;35.31
81913;BME280;71377;50.698;7.164;2023-07-22T10:38:27;100781.41;;;24.51;35.26
81913;BME280;71377;50.698;7.164;2023-07-22T10:40:54;100786.56;;;25.01;34.96
81913;BME280;71377;50.698;7.164;2023-07-22T10:43:32;100779.66;;;24.89;31.56
81913;BME280;71377;50.698;7.164;2023-07-22T10:46:09;100767.13;;;24.61;31.58
81913;BME280;71377;50.698;7.164;2023-07-22T10:48:38;100774.72;;;24.46;33.34
81913;BME280;71377;50.698;7.164;2023-07-22T10:51:13;100779.06;;;24.28;32.64
81913;BME280;71377;50.698;7.164;2023-07-22T10:53:46;100774.72;;;24.56;32.65
81913;BME280;71377;50.698;7.164;2023-07-22T10:56:20;100773.00;;;24.93;31.15
81913;BME280;71377;50.698;7.164;2023-07-22T11:06:34;100759.81;;;25.29;31.45
81913;BME280;71377;50.698;7.164;2023-07-22T11:09:01;100762.28;;;24.84;30.53
81913;BME280;71377;50.698;7.164;2023-07-22T11:11:38;100757.00;;;25.01;30.39
81913;BME280;71377;50.698;7.164;2023-07-22T11:14:31;100757.16;;;25.00;30.48
81913;BME280;71377;50.698;7.164;2023-07-22T11:17:00;100761.16;;;25.05;31.71
81913;BME280;71377;50.698;7.164;2023-07-22T11:19:27;100749.41;;;25.06;30.32
81913;BME280;71377;50.698;7.164;2023-07-22T11:21:54;100750.34;;;25.25;30.70
81913;BME280;71377;50.698;7.164;2023-07-22T11:24:22;100746.56;;;24.98;30.71
81913;BME280;71377;50.698;7.164;2023-07-22T11:26:50;100743.63;;;24.82;30.16
81913;BME280;71377;50.698;7.164;2023-07-22T11:29:17;100748.00;;;25.02;29.59
81913;BME280;71377;50.698;7.164;2023-07-22T11:31:46;100745.88;;;24.87;29.77
81913;BME280;71377;50.698;7.164;2023-07-22T11:34:16;100733.00;;;24.90;28.06
81913;BME280;71377;50.698;7.164;2023-07-22T11:36:44;100737.66;;;25.07;29.40
81913;BME280;71377;50.698;7.164;2023-07-22T11:39:13;100741.28;;;25.26;29.61
81913;BME280;71377;50.698;7.164;2023-07-22T11:41:40;100744.44;;;24.92;28.16
81913;BME280;71377;50.698;7.164;2023-07-22T11:44:17;100740.06;;;25.48;28.65
81913;BME280;71377;50.698;7.164;2023-07-22T11:46:48;100747.75;;;25.33;30.22
81913;BME280;71377;50.698;7.164;2023-07-22T11:51:54;100737.34;;;25.11;28.83
81913;BME280;71377;50.698;7.164;2023-07-22T11:54:21;100731.63;;;25.33;28.18
81913;BME280;71377;50.698;7.164;2023-07-22T11:56:48;100725.31;;;25.52;28.57
81913;BME280;71377;50.698;7.164;2023-07-22T11:59:15;100728.53;;;25.28;29.22
81913;BME280;71377;50.698;7.164;2023-07-22T12:01:45;100730.94;;;25.31;27.84
81913;BME280;71377;50.698;7.164;2023-07-22T12:04:13;100728.47;;;25.47;28.59
81913;BME280;71377;50.698;7.164;2023-07-22T12:06:41;100732.28;;;25.54;29.36
81913;BME280;71377;50.698;7.164;2023-07-22T12:09:09;100727.38;;;25.95;27.05
81913;BME280;71377;50.698;7.164;2023-07-22T12:11:36;100720.38;;;25.84;27.75
81913;BME280;71377;50.698;7.164;2023-07-22T12:14:10;100727.44;;;25.85;28.85
81913;BME280;71377;50.698;7.164;2023-07-22T12:16:42;100725.38;;;25.97;28.32
81913;BME280;71377;50.698;7.164;2023-07-22T12:19:09;100719.72;;;26.00;28.43
81913;BME280;71377;50.698;7.164;2023-07-22T12:21:35;100701.81;;;26.44;26.63
81913;BME280;71377;50.698;7.164;2023-07-22T12:24:02;100709.28;;;26.51;26.19
81913;BME280;71377;50.698;7.164;2023-07-22T12:26:30;100706.09;;;26.55;26.17
81913;BME280;71377;50.698;7.164;2023-07-22T12:28:56;100706.63;;;26.05;27.88
81913;BME280;71377;50.698;7.164;2023-07-22T12:31:23;100706.47;;;25.89;27.65
81913;BME280;71377;50.698;7.164;2023-07-22T12:33:50;100705.25;;;26.01;27.56
81913;BME280;71377;50.698;7.164;2023-07-22T12:36:17;100695.72;;;26.25;26.79
81913;BME280;71377;50.698;7.164;2023-07-22T12:38:43;100699.94;;;26.63;26.73
81913;BME280;71377;50.698;7.164;2023-07-22T12:41:10;100695.59;;;27.14;26.74
81913;BME280;71377;50.698;7.164;2023-07-22T12:43:36;100685.91;;;26.77;26.81
81913;BME280;71377;50.698;7.164;2023-07-22T12:46:03;100687.34;;;27.15;26.34
81913;BME280;71377;50.698;7.164;2023-07-22T12:48:30;100684.16;;;26.68;27.59
81913;BME280;71377;50.698;7.164;2023-07-22T12:50:57;100697.47;;;25.80;28.07
81913;BME280;71377;50.698;7.164;2023-07-22T12:53:24;100694.16;;;26.04;27.56
81913;BME280;71377;50.698;7.164;2023-07-22T12:55:50;100679.06;;;27.17;26.62
81913;BME280;71377;50.698;7.164;2023-07-22T12:58:17;100676.19;;;27.95;25.25
81913;BME280;71377;50.698;7.164;2023-07-22T13:00:44;100666.97;;;28.54;26.57
81913;BME280;71377;50.698;7.164;2023-07-22T13:03:11;100669.44;;;28.88;25.00
81913;BME280;71377;50.698;7.164;2023-07-22T13:05:37;100661.25;;;28.33;25.81